createdAt,value
2023-04-13T00:00:16.599Z,8.10
2023-04-13T00:02:45.298Z,8.70
2023-04-13T00:05:13.727Z,7.70
2023-04-13T00:07:43.414Z,8.17
2023-04-13T00:10:11.430Z,8.43
2023-04-13T00:12:41.384Z,8.20
2023-04-13T00:15:11.323Z,8.13
2023-04-13T00:17:39.215Z,7.63
2023-04-13T00:20:12.480Z,8.13
2023-04-13T00:22:40.406Z,8.53
2023-04-13T00:25:08.802Z,8.50
2023-04-13T00:27:38.974Z,7.77
2023-04-13T00:30:09.055Z,7.20
2023-04-13T00:32:38.707Z,8.73
2023-04-13T00:35:07.884Z,8.67
2023-04-13T00:37:35.887Z,7.27
2023-04-13T00:40:05.782Z,7.43
2023-04-13T00:42:33.892Z,6.87
2023-04-13T00:45:01.574Z,6.80
2023-04-13T00:47:30.509Z,6.87
2023-04-13T00:50:01.134Z,6.57
2023-04-13T00:52:29.155Z,6.73
2023-04-13T00:54:58.149Z,6.43
2023-04-13T00:57:27.223Z,6.20
2023-04-13T00:59:54.934Z,6.40
2023-04-13T01:02:26.558Z,6.27
2023-04-13T01:04:55.133Z,6.10
2023-04-13T01:07:27.295Z,6.60
2023-04-13T01:10:09.248Z,6.90
2023-04-13T01:12:40.737Z,6.20
2023-04-13T01:15:11.543Z,6.13
2023-04-13T01:17:40.050Z,6.37
2023-04-13T01:20:10.897Z,6.10
2023-04-13T01:22:42.580Z,5.13
2023-04-13T01:25:28.939Z,5.10
2023-04-13T01:27:59.613Z,5.37
2023-04-13T01:30:28.441Z,5.07
2023-04-13T01:32:56.372Z,5.43
2023-04-13T01:35:25.960Z,5.23
2023-04-13T01:37:53.729Z,5.50
2023-04-13T01:40:22.742Z,5.30
2023-04-13T01:42:50.776Z,5.60
2023-04-13T01:45:21.273Z,5.30
2023-04-13T01:47:52.544Z,5.00
2023-04-13T01:50:25.920Z,4.63
2023-04-13T01:52:54.954Z,4.50
2023-04-13T01:55:23.237Z,4.97
2023-04-13T01:57:52.001Z,5.00
2023-04-13T02:00:21.464Z,5.03
2023-04-13T02:02:49.833Z,5.17
2023-04-13T02:05:18.246Z,5.10
2023-04-13T02:07:46.789Z,5.20
2023-04-13T02:10:16.726Z,4.70
2023-04-13T02:12:44.754Z,4.07
2023-04-13T02:15:12.787Z,4.37
2023-04-13T02:17:42.281Z,4.77
2023-04-13T02:20:12.479Z,4.40
2023-04-13T02:22:41.616Z,4.50
2023-04-13T02:25:11.342Z,4.70
2023-04-13T02:27:39.625Z,4.70
2023-04-13T02:30:09.693Z,4.40
2023-04-13T02:32:38.411Z,4.00
2023-04-13T02:35:10.142Z,4.53
2023-04-13T02:37:40.304Z,4.63
2023-04-13T02:40:10.083Z,4.60
2023-04-13T02:42:38.792Z,4.17
2023-04-13T02:45:08.288Z,4.63
2023-04-13T02:47:36.238Z,3.90
2023-04-13T02:50:04.681Z,4.17
2023-04-13T02:52:34.129Z,3.70
2023-04-13T02:55:02.309Z,3.77
2023-04-13T02:57:30.320Z,4.47
2023-04-13T02:59:58.553Z,3.60
2023-04-13T03:02:30.003Z,4.03
2023-04-13T03:04:59.362Z,4.00
2023-04-13T03:07:27.436Z,4.47
2023-04-13T03:09:56.673Z,4.13
2023-04-13T03:12:26.798Z,3.67
2023-04-13T03:14:55.119Z,3.63
2023-04-13T03:17:23.037Z,3.50
2023-04-13T03:19:52.607Z,3.67
2023-04-13T03:22:21.036Z,3.70
2023-04-13T03:24:49.200Z,3.67
2023-04-13T03:27:26.298Z,3.53
2023-04-13T03:29:54.774Z,4.10
2023-04-13T03:32:23.340Z,4.00
2023-04-13T03:34:51.846Z,3.53
2023-04-13T03:37:19.892Z,3.53
2023-04-13T03:39:47.890Z,3.30
2023-04-13T03:42:16.472Z,3.53
2023-04-13T03:44:46.371Z,3.67
2023-04-13T03:47:26.165Z,3.70
2023-04-13T03:49:54.505Z,3.97
2023-04-13T03:52:22.475Z,3.70
2023-04-13T03:54:50.430Z,3.60
2023-04-13T03:57:18.847Z,3.37
2023-04-13T03:59:51.592Z,3.07
2023-04-13T04:02:19.769Z,3.37
2023-04-13T04:04:49.504Z,3.50
2023-04-13T04:07:19.655Z,3.17
2023-04-13T04:09:51.036Z,3.60
2023-04-13T04:12:21.378Z,3.60
2023-04-13T04:14:54.209Z,3.03
2023-04-13T04:17:22.384Z,3.33
2023-04-13T04:19:52.529Z,3.10
2023-04-13T04:22:24.022Z,3.40
2023-04-13T04:24:52.718Z,3.20
2023-04-13T04:27:24.740Z,2.77
2023-04-13T04:29:59.295Z,2.90
2023-04-13T04:32:33.053Z,3.30
2023-04-13T04:35:07.376Z,3.00
2023-04-13T04:37:37.711Z,2.70
2023-04-13T04:40:09.524Z,2.77
2023-04-13T04:42:38.536Z,2.47
2023-04-13T04:45:12.239Z,3.07
2023-04-13T04:47:45.590Z,2.50
2023-04-13T04:50:18.351Z,2.57
2023-04-13T04:52:49.192Z,2.50
2023-04-13T04:55:17.254Z,2.27
2023-04-13T04:57:47.544Z,2.67
2023-04-13T05:00:20.895Z,2.50
2023-04-13T05:02:52.716Z,2.10
2023-04-13T05:05:22.138Z,2.40
2023-04-13T05:07:52.729Z,2.70
2023-04-13T05:10:22.219Z,1.80
2023-04-13T05:12:52.513Z,1.80
2023-04-13T05:15:23.196Z,2.07
2023-04-13T05:17:51.433Z,2.07
2023-04-13T05:20:28.084Z,2.03
2023-04-13T05:22:57.841Z,2.10
2023-04-13T05:25:32.505Z,1.80
2023-04-13T05:28:03.412Z,2.43
2023-04-13T05:30:40.004Z,1.93
2023-04-13T05:33:11.362Z,1.93
2023-04-13T05:35:43.307Z,1.80
2023-04-13T05:38:22.802Z,1.67
2023-04-13T05:40:59.015Z,1.80
2023-04-13T05:43:37.627Z,2.10
2023-04-13T05:46:15.170Z,1.50
2023-04-13T05:48:52.790Z,1.80
2023-04-13T05:51:33.204Z,2.10
2023-04-13T05:54:05.477Z,1.73
2023-04-13T05:56:35.155Z,1.40
2023-04-13T05:59:12.626Z,1.40
2023-04-13T06:01:54.842Z,1.60
2023-04-13T06:04:29.033Z,1.70
2023-04-13T06:07:13.224Z,1.60
2023-04-13T06:09:53.307Z,1.77
2023-04-13T06:12:21.699Z,1.40
2023-04-13T06:14:56.028Z,2.00
2023-04-13T06:17:25.851Z,1.57
2023-04-13T06:19:54.473Z,1.90
2023-04-13T06:22:23.244Z,1.50
2023-04-13T06:24:54.524Z,1.57
2023-04-13T06:27:22.573Z,1.70
2023-04-13T06:29:53.491Z,1.50
2023-04-13T06:32:21.603Z,1.80
2023-04-13T06:34:51.176Z,1.70
2023-04-13T06:37:20.992Z,1.70
2023-04-13T06:39:49.266Z,1.50
2023-04-13T06:42:17.852Z,1.50
2023-04-13T06:44:46.549Z,1.60
2023-04-13T06:47:14.646Z,1.57
2023-04-13T06:49:42.776Z,1.43
2023-04-13T06:52:12.291Z,1.80
2023-04-13T06:54:40.970Z,1.60
2023-04-13T06:57:22.487Z,1.70
2023-04-13T06:59:50.670Z,1.50
2023-04-13T07:02:18.807Z,1.60
2023-04-13T07:04:46.886Z,1.63
2023-04-13T07:07:16.700Z,1.63
2023-04-13T07:09:44.764Z,1.40
2023-04-13T07:12:13.016Z,1.20
2023-04-13T07:14:41.839Z,1.90
2023-04-13T07:17:12.687Z,1.43
2023-04-13T07:19:44.855Z,1.37
2023-04-13T07:22:12.653Z,1.43
2023-04-13T07:24:41.760Z,1.57
2023-04-13T07:27:09.651Z,1.33
2023-04-13T07:29:38.064Z,1.53
2023-04-13T07:32:06.849Z,1.60
2023-04-13T07:34:34.781Z,1.40
2023-04-13T07:37:02.824Z,1.47
2023-04-13T07:39:31.381Z,1.60
2023-04-13T07:42:01.659Z,1.70
2023-04-13T07:44:29.651Z,1.50
2023-04-13T07:46:57.641Z,1.40
2023-04-13T07:49:25.610Z,1.50
2023-04-13T07:51:54.099Z,1.50
2023-04-13T07:54:22.239Z,1.70
2023-04-13T07:56:50.237Z,1.37
2023-04-13T07:59:19.738Z,1.60
2023-04-13T08:01:47.739Z,3.90
2023-04-13T08:04:15.854Z,4.87
2023-04-13T08:06:43.956Z,5.13
2023-04-13T08:09:11.973Z,4.97
2023-04-13T08:11:39.923Z,5.20
2023-04-13T08:14:09.782Z,4.10
2023-04-13T08:16:38.963Z,2.50
2023-04-13T08:19:07.468Z,2.70
2023-04-13T08:21:37.531Z,2.17
2023-04-13T08:24:06.459Z,2.00
2023-04-13T08:26:34.449Z,1.70
2023-04-13T08:29:03.173Z,1.73
2023-04-13T08:31:32.421Z,1.40
2023-04-13T08:34:01.584Z,1.63
2023-04-13T08:36:29.348Z,1.53
2023-04-13T08:38:57.950Z,1.60
2023-04-13T08:41:27.039Z,1.53
2023-04-13T08:43:54.814Z,1.50
2023-04-13T08:46:23.482Z,1.30
2023-04-13T08:48:53.893Z,1.53
2023-04-13T08:51:24.172Z,1.23
2023-04-13T08:53:54.721Z,1.40
2023-04-13T08:56:31.031Z,1.40
2023-04-13T08:59:06.938Z,1.83
2023-04-13T09:01:35.233Z,1.60
2023-04-13T09:04:05.321Z,2.03
2023-04-13T09:06:36.120Z,2.10
2023-04-13T09:11:52.167Z,1.93
2023-04-13T09:14:21.011Z,2.10
2023-04-13T09:16:48.762Z,1.77
2023-04-13T09:19:16.926Z,1.87
2023-04-13T09:21:46.559Z,1.50
2023-04-13T09:24:14.480Z,1.90
2023-04-13T09:26:43.478Z,1.70
2023-04-13T09:29:14.924Z,2.10
2023-04-13T09:31:45.225Z,1.60
2023-04-13T09:34:14.101Z,1.80
2023-04-13T09:36:53.543Z,1.80
2023-04-13T09:39:28.494Z,1.93
2023-04-13T09:41:57.760Z,2.13
2023-04-13T09:44:27.961Z,1.70
2023-04-13T09:46:59.729Z,1.87
2023-04-13T09:49:27.643Z,2.33
2023-04-13T09:51:55.739Z,2.27
2023-04-13T09:54:23.718Z,2.10
2023-04-13T09:56:54.587Z,2.40
2023-04-13T09:59:23.720Z,2.63
2023-04-13T10:01:51.723Z,3.03
2023-04-13T10:04:19.467Z,3.40
2023-04-13T10:06:47.901Z,3.90
2023-04-13T10:09:15.955Z,3.10
2023-04-13T10:11:46.029Z,3.83
2023-04-13T10:14:18.245Z,3.43
2023-04-13T10:17:17.409Z,3.60
2023-04-13T10:19:47.021Z,3.30
2023-04-13T10:22:15.188Z,3.70
2023-04-13T10:24:43.096Z,3.47
2023-04-13T10:27:15.611Z,3.23
2023-04-13T10:29:45.185Z,3.60
2023-04-13T10:32:21.655Z,3.10
2023-04-13T10:34:50.158Z,3.13
2023-04-13T10:37:19.617Z,3.37
2023-04-13T10:39:47.862Z,2.77
2023-04-13T10:42:17.936Z,2.80
2023-04-13T10:44:48.264Z,3.20
2023-04-13T10:47:17.035Z,3.17
2023-04-13T10:49:46.005Z,3.27
2023-04-13T10:52:14.205Z,2.80
2023-04-13T10:54:42.929Z,2.50
2023-04-13T10:57:11.463Z,2.40
2023-04-13T10:59:56.385Z,2.60
2023-04-13T11:02:27.884Z,2.43
2023-04-13T11:04:55.811Z,2.43
2023-04-13T11:07:25.955Z,2.23
2023-04-13T11:10:02.971Z,2.10
2023-04-13T11:12:32.282Z,2.50
2023-04-13T11:15:00.648Z,2.20
2023-04-13T11:17:30.307Z,2.27
2023-04-13T11:19:59.298Z,1.67
2023-04-13T11:22:29.092Z,1.87
2023-04-13T11:25:08.637Z,2.13
2023-04-13T11:27:37.920Z,1.83
2023-04-13T11:30:07.056Z,1.83
2023-04-13T11:32:43.396Z,2.23
2023-04-13T11:35:13.864Z,1.80
2023-04-13T11:37:42.589Z,2.63
2023-04-13T11:40:12.888Z,2.37
2023-04-13T11:42:41.005Z,2.63
2023-04-13T11:45:10.605Z,2.60
2023-04-13T11:47:39.967Z,2.20
2023-04-13T11:50:09.595Z,2.40
2023-04-13T11:52:37.928Z,2.13
2023-04-13T11:55:18.968Z,2.53
2023-04-13T11:57:50.081Z,2.30
2023-04-13T12:00:20.074Z,2.17
2023-04-13T12:03:01.785Z,1.83
2023-04-13T12:05:32.432Z,2.20
2023-04-13T12:08:04.393Z,1.47
2023-04-13T12:13:20.210Z,1.50
2023-04-13T12:18:34.286Z,1.50
2023-04-13T12:21:06.132Z,1.70
2023-04-13T12:23:34.220Z,1.20
2023-04-13T12:26:25.880Z,1.13
2023-04-13T12:28:55.848Z,1.10
2023-04-13T12:31:23.946Z,1.40
2023-04-13T12:33:53.575Z,1.43
2023-04-13T12:36:22.077Z,1.50
2023-04-13T12:38:50.046Z,1.47
2023-04-13T12:41:18.068Z,1.50
2023-04-13T12:43:46.081Z,1.30
2023-04-13T12:46:14.777Z,1.37
2023-04-13T12:48:42.696Z,1.27
2023-04-13T12:51:12.224Z,1.30
2023-04-13T12:53:40.307Z,1.33
2023-04-13T12:56:08.842Z,1.70
2023-04-13T12:58:37.360Z,1.57
2023-04-13T13:01:05.598Z,1.57
2023-04-13T13:03:33.778Z,1.90
2023-04-13T13:06:01.816Z,1.60
2023-04-13T13:08:34.571Z,1.80
2023-04-13T13:11:04.127Z,1.90
2023-04-13T13:13:32.200Z,1.70
2023-04-13T13:16:00.342Z,1.90
2023-04-13T13:18:38.988Z,1.50
2023-04-13T13:21:16.837Z,1.43
2023-04-13T13:23:46.496Z,1.63
2023-04-13T13:28:46.560Z,1.60
2023-04-13T13:31:15.530Z,1.47
2023-04-13T13:33:43.902Z,1.40
2023-04-13T13:36:13.570Z,1.57
2023-04-13T13:38:41.258Z,1.87
2023-04-13T13:41:10.414Z,1.43
2023-04-13T13:43:38.788Z,1.67
2023-04-13T13:46:07.047Z,1.97
2023-04-13T13:48:34.855Z,1.80
2023-04-13T13:51:04.444Z,1.63
2023-04-13T13:53:33.349Z,1.40
2023-04-13T13:56:01.828Z,1.60
2023-04-13T13:58:31.205Z,1.93
2023-04-13T14:00:59.866Z,1.77
2023-04-13T14:03:27.874Z,1.40
2023-04-13T14:05:58.670Z,1.30
2023-04-13T14:08:26.634Z,1.50
2023-04-13T14:10:54.392Z,1.80
2023-04-13T14:13:22.642Z,1.67
2023-04-13T14:15:51.979Z,1.53
2023-04-13T14:18:20.175Z,1.33
2023-04-13T14:20:48.370Z,1.80
2023-04-13T14:23:16.971Z,1.60
2023-04-13T14:25:44.924Z,1.70
2023-04-13T14:28:13.886Z,1.70
2023-04-13T14:30:41.878Z,1.77
2023-04-13T14:33:13.641Z,1.77
2023-04-13T14:35:41.982Z,2.00
2023-04-13T14:38:09.921Z,2.00
2023-04-13T14:40:37.763Z,2.07
2023-04-13T14:43:05.744Z,2.10
2023-04-13T14:45:33.713Z,2.30
2023-04-13T14:48:01.786Z,2.10
2023-04-13T14:50:31.189Z,2.10
2023-04-13T14:52:59.595Z,2.60
2023-04-13T14:55:27.451Z,2.83
2023-04-13T14:57:58.092Z,2.90
2023-04-13T15:00:38.865Z,2.90
2023-04-13T15:03:08.201Z,2.80
2023-04-13T15:05:39.586Z,2.90
2023-04-13T15:08:08.201Z,2.50
2023-04-13T15:10:35.996Z,2.83
2023-04-13T15:13:04.359Z,2.03
2023-04-13T15:15:33.296Z,2.60
2023-04-13T15:18:03.010Z,2.40
2023-04-13T15:20:31.906Z,2.80
2023-04-13T15:23:01.446Z,2.40
2023-04-13T15:25:29.572Z,3.00
2023-04-13T15:27:58.365Z,2.33
2023-04-13T15:30:27.384Z,2.80
2023-04-13T15:32:56.863Z,2.57
2023-04-13T15:35:26.872Z,2.67
2023-04-13T15:37:55.285Z,2.57
2023-04-13T15:40:26.059Z,2.50
2023-04-13T15:42:54.130Z,3.30
2023-04-13T15:45:22.247Z,2.90
2023-04-13T15:47:50.421Z,2.60
2023-04-13T15:50:19.668Z,2.50
2023-04-13T15:52:47.742Z,2.50
2023-04-13T15:55:15.879Z,2.57
2023-04-13T15:57:45.452Z,2.23
2023-04-13T16:00:14.788Z,2.40
2023-04-13T16:02:43.003Z,2.40
2023-04-13T16:05:11.697Z,2.60
2023-04-13T16:07:39.692Z,2.20
2023-04-13T16:10:09.470Z,2.60
2023-04-13T16:12:39.493Z,2.47
2023-04-13T16:15:11.847Z,2.40
2023-04-13T16:17:43.534Z,2.27
2023-04-13T16:20:19.794Z,2.60
2023-04-13T16:22:48.965Z,2.87
2023-04-13T16:25:17.187Z,2.60
2023-04-13T16:27:45.234Z,2.60
2023-04-13T16:30:15.567Z,2.07
2023-04-13T16:32:44.620Z,2.00
2023-04-13T16:35:13.061Z,2.20
2023-04-13T16:37:42.481Z,2.90
2023-04-13T16:40:11.690Z,2.00
2023-04-13T16:42:40.409Z,2.37
2023-04-13T16:45:12.149Z,1.97
2023-04-13T16:47:44.322Z,2.40
2023-04-13T16:50:13.451Z,2.43
2023-04-13T16:52:41.605Z,2.00
2023-04-13T16:55:14.071Z,2.03
2023-04-13T16:57:42.653Z,2.10
2023-04-13T17:00:11.541Z,2.03
2023-04-13T17:02:40.462Z,2.27
2023-04-13T17:05:10.981Z,2.30
2023-04-13T17:07:41.340Z,2.30
2023-04-13T17:10:10.714Z,2.00
2023-04-13T17:12:38.678Z,2.33
2023-04-13T17:15:07.983Z,1.83
2023-04-13T17:17:36.132Z,2.20
2023-04-13T17:20:04.890Z,2.70
2023-04-13T17:22:34.433Z,2.20
2023-04-13T17:25:02.660Z,2.20
2023-04-13T17:27:30.532Z,1.77
2023-04-13T17:29:58.956Z,2.30
2023-04-13T17:32:27.400Z,2.23
2023-04-13T17:34:57.024Z,2.43
2023-04-13T17:37:24.936Z,2.23
2023-04-13T17:39:54.183Z,2.37
2023-04-13T17:42:21.884Z,2.27
2023-04-13T17:44:50.112Z,2.37
2023-04-13T17:47:17.980Z,2.37
2023-04-13T17:49:46.011Z,2.37
2023-04-13T17:52:13.995Z,2.20
2023-04-13T17:54:41.877Z,2.50
2023-04-13T17:57:11.351Z,1.90
2023-04-13T17:59:39.212Z,2.53
2023-04-13T18:02:07.258Z,2.53
2023-04-13T18:04:35.255Z,2.53
2023-04-13T18:07:03.072Z,2.73
2023-04-13T18:09:31.501Z,2.33
2023-04-13T18:11:59.191Z,2.37
2023-04-13T18:14:28.366Z,2.97
2023-04-13T18:16:57.130Z,2.60
2023-04-13T18:19:25.562Z,2.73
2023-04-13T18:21:53.604Z,2.97
2023-04-13T18:24:21.752Z,2.83
2023-04-13T18:26:49.707Z,3.90
2023-04-13T18:29:17.686Z,3.43
2023-04-13T18:31:47.186Z,3.73
2023-04-13T18:34:15.224Z,4.47
2023-04-13T18:36:43.593Z,5.90
2023-04-13T18:39:11.549Z,7.30
2023-04-13T18:41:42.190Z,8.37
2023-04-13T18:44:10.453Z,8.30
2023-04-13T18:46:38.736Z,8.10
2023-04-13T18:49:09.369Z,8.50
2023-04-13T18:51:37.751Z,8.43
2023-04-13T18:54:06.299Z,8.77
2023-04-13T18:56:35.201Z,8.23
2023-04-13T18:59:03.434Z,8.77
2023-04-13T19:01:32.108Z,8.60
2023-04-13T19:04:00.909Z,8.00
2023-04-13T19:06:32.489Z,8.53
2023-04-13T19:09:00.616Z,8.50
2023-04-13T19:11:29.050Z,8.87
2023-04-13T19:13:57.120Z,9.50
2023-04-13T19:16:26.229Z,8.17
2023-04-13T19:18:54.440Z,8.50
2023-04-13T19:21:24.217Z,7.70
2023-04-13T19:23:53.372Z,8.80
2023-04-13T19:26:21.161Z,9.50
2023-04-13T19:28:49.287Z,8.90
2023-04-13T19:31:17.372Z,8.93
2023-04-13T19:33:46.536Z,8.77
2023-04-13T19:36:14.494Z,8.10
2023-04-13T19:38:45.064Z,9.00
2023-04-13T19:41:15.172Z,8.07
2023-04-13T19:43:43.030Z,9.20
2023-04-13T19:46:11.216Z,8.93
2023-04-13T19:48:39.050Z,7.80
2023-04-13T19:51:06.913Z,10.27
2023-04-13T19:53:36.809Z,8.50
2023-04-13T19:56:05.850Z,8.47
2023-04-13T19:58:35.046Z,8.93
2023-04-13T20:01:05.102Z,7.93
2023-04-13T20:03:33.605Z,9.07
2023-04-13T20:06:02.851Z,8.27
2023-04-13T20:08:30.932Z,9.33
2023-04-13T20:10:59.933Z,8.83
2023-04-13T20:13:28.410Z,8.50
2023-04-13T20:15:57.876Z,8.67
2023-04-13T20:18:25.957Z,8.10
2023-04-13T20:20:53.713Z,8.20
2023-04-13T20:23:21.609Z,7.60
2023-04-13T20:25:49.576Z,7.77
2023-04-13T20:28:17.852Z,7.50
2023-04-13T20:30:45.714Z,8.20
2023-04-13T20:33:15.228Z,8.30
2023-04-13T20:35:43.289Z,7.77
2023-04-13T20:38:13.881Z,7.40
2023-04-13T20:40:45.603Z,7.73
2023-04-13T20:43:15.576Z,7.83
2023-04-13T20:45:45.547Z,7.03
2023-04-13T20:50:48.057Z,7.90
2023-04-13T20:53:17.324Z,7.67
2023-04-13T20:55:45.245Z,7.20
2023-04-13T20:58:13.036Z,7.70
2023-04-13T21:00:42.425Z,7.53
2023-04-13T21:03:10.427Z,7.30
2023-04-13T21:05:40.742Z,7.63
2023-04-13T21:08:08.981Z,7.30
2023-04-13T21:10:36.845Z,7.10
2023-04-13T21:13:05.974Z,7.50
2023-04-13T21:15:33.822Z,7.30
2023-04-13T21:18:01.869Z,6.53
2023-04-13T21:20:29.830Z,6.73
2023-04-13T21:22:59.429Z,7.40
2023-04-13T21:25:27.905Z,6.90
2023-04-13T21:27:55.814Z,6.13
2023-04-13T21:30:23.893Z,6.80
2023-04-13T21:32:51.654Z,6.50
2023-04-13T21:35:20.469Z,6.80
2023-04-13T21:37:48.185Z,6.57
2023-04-13T21:40:18.435Z,6.60
2023-04-13T21:42:46.401Z,7.10
2023-04-13T21:45:14.469Z,6.37
2023-04-13T21:47:42.407Z,6.20
2023-04-13T21:50:11.016Z,6.40
2023-04-13T21:52:38.974Z,6.43
2023-04-13T21:55:07.548Z,6.60
2023-04-13T21:57:36.941Z,6.80
2023-04-13T22:00:06.530Z,6.07
2023-04-13T22:02:35.056Z,6.40
2023-04-13T22:05:03.581Z,6.20
2023-04-13T22:07:41.786Z,6.10
2023-04-13T22:10:11.757Z,10.63
2023-04-13T22:12:41.142Z,15.17
2023-04-13T22:15:09.608Z,13.80
2023-04-13T22:17:37.370Z,15.87
2023-04-13T22:20:05.897Z,15.53
2023-04-13T22:22:33.583Z,15.50
2023-04-13T22:25:01.400Z,15.27
2023-04-13T22:27:29.166Z,15.17
2023-04-13T22:29:58.229Z,14.53
2023-04-13T22:32:28.145Z,16.10
2023-04-13T22:34:56.095Z,15.87
2023-04-13T22:37:24.004Z,14.33
2023-04-13T22:39:51.893Z,14.50
2023-04-13T22:42:19.778Z,15.13
2023-04-13T22:44:47.618Z,15.90
2023-04-13T22:47:17.025Z,14.73
2023-04-13T22:49:44.858Z,14.50
2023-04-13T22:52:12.744Z,13.30
2023-04-13T22:54:40.537Z,12.87
2023-04-13T22:57:08.205Z,13.53
2023-04-13T22:59:36.019Z,12.57
2023-04-13T23:02:04.034Z,13.97
2023-04-13T23:04:33.350Z,13.10
2023-04-13T23:07:01.525Z,12.97
2023-04-13T23:09:29.568Z,12.33
2023-04-13T23:11:57.849Z,12.30
2023-04-13T23:14:25.522Z,12.20
2023-04-13T23:16:53.548Z,11.87
2023-04-13T23:19:21.218Z,11.53
2023-04-13T23:21:50.778Z,11.00
2023-04-13T23:24:18.458Z,11.60
2023-04-13T23:26:46.571Z,11.40
2023-04-13T23:29:16.118Z,11.00
2023-04-13T23:31:44.140Z,10.50
2023-04-13T23:34:12.194Z,9.77
2023-04-13T23:36:40.320Z,10.00
2023-04-13T23:39:09.721Z,9.03
2023-04-13T23:41:37.970Z,9.30
2023-04-13T23:44:06.333Z,9.03
2023-04-13T23:46:34.460Z,9.43
2023-04-13T23:49:02.787Z,9.43
2023-04-13T23:51:31.271Z,8.70
2023-04-13T23:53:59.252Z,8.90
2023-04-13T23:56:28.910Z,8.00
2023-04-13T23:58:56.843Z,8.47
